الصفحة الرئيسية
METAR-TAF:

METAR-TAF

مطار :

مطار عمان المدني

عمان, الأردن

دائرة عرض: 31-59N, خط طول: 035-59E, ارتفاع: 767 متر

مراقبة الطقس الحالي

تاريخ ووقت الإصدار 27 دقيقة قبل الساعة 07:00UTC
ريح 10 عقدة من الغرب
درجة الحرارة 24°درجة مئوية
الرطوبة 44%
ضغط 1013 hPa
الرؤية 10 كم أو أكثر
الغيوم لا تقل 1500 م ولا وجود لمزنة ركامية السحاب الأسود

METAR: OJAM 240700Z 27010KT CAVOK 24/11 Q1013 NOSIG

زمن: 10:27 (07:27 UTC)

توقعات

تاريخ ووقت الإصدار 2ساعات و 37 دقيقة قبل الساعة 04:50UTC
التوقعات صالحة من24 الساعة 06 UTC إلى 25 الساعة 12 UTC
ريح 12 عقدة من الشمال الغربي
الرؤية: 6000 متر
غيوم قليلة على ارتفاع 3000 قدم
مؤقت
من 24 الساعة 06 UTC إلى 24 الساعة 17 UTC
الرؤية: 4000 متر
العجاج

TAF: OJAM 240450Z 2406/2512 31012KT 6000 FEW030 TEMPO 2406/2417 4000 HZ

أرصاد الطقس والتوقعات من أكثر من 4000 مطار (تقارير الطقس للمطار METAR والتنبؤ بالطقس بالمطارTAF).

المحطات المتاحة هي النقط الصفراء والحمراء على الخريطة.

حرك المؤشر فوق النقطة لمعرفة اسم المحطة.

ثم انقر لمعرفة أرصاد وتوقعات الطقس.

لتغيير الخارطة: اضغط على الأزرار الخضراء مع رمز الصليب الأسود للتكبير. على الزر الأخضر مع شرطة للتصغير، أو على الأسهم الخضراء للخرائط المجاورة.


METAR-TAF: